Time;durP1;ratioP1;P1;durP2;ratioP2;P2;SDS_P1;SDS_P2;PMS_P1;PMS_P2;Temp;Humidity;BMP_temperature;BMP_pressure;BME280_temperature;BME280_humidity;BME280_pressure;Samples;Min_cycle;Max_cycle;Signal;HPM_P1;HPM_P2
2023/01/10 00:01:52;;;;;;;12.77;3.10;;;;;;;4.14;100.00;101148.16;5100747;28;20143;-80
2023/01/10 00:04:18;;;;;;;13.00;3.13;;;;;;;4.02;100.00;101136.13;5100185;28;20448;-80
2023/01/10 00:06:43;;;;;;;9.77;3.55;;;;;;;4.00;100.00;101152.09;5101042;28;20103;-80
2023/01/10 00:09:10;;;;;;;9.00;4.15;;;;;;;3.92;100.00;101152.81;5102224;28;20438;-80
2023/01/10 00:14:19;;;;;;;10.25;3.97;;;;;;;3.84;100.00;101167.72;5098818;28;20043;-80
2023/01/10 00:16:44;;;;;;;11.35;3.25;;;;;;;3.81;100.00;101165.38;5101873;28;20387;-80
2023/01/10 00:19:10;;;;;;;12.38;3.00;;;;;;;3.84;100.00;101167.72;5099200;28;20096;-80
2023/01/10 00:21:36;;;;;;;11.98;2.65;;;;;;;3.93;100.00;101175.59;5101901;28;20027;-80
2023/01/10 00:24:15;;;;;;;7.15;3.50;;;;;;;4.01;100.00;101176.66;5101427;28;20040;-80
2023/01/10 00:26:40;;;;;;;9.63;2.90;;;;;;;4.10;100.00;101184.53;5101232;28;20028;-80
2023/01/10 00:29:06;;;;;;;9.15;3.35;;;;;;;4.15;100.00;101195.50;5100374;28;20026;-79
2023/01/10 00:31:32;;;;;;;8.55;4.47;;;;;;;4.10;100.00;101197.75;5101453;28;20077;-79
2023/01/10 00:33:57;;;;;;;13.77;3.17;;;;;;;4.09;100.00;101192.63;5100801;28;20023;-79
2023/01/10 00:36:22;;;;;;;8.13;2.88;;;;;;;4.05;100.00;101201.81;5100687;28;20521;-79
2023/01/10 00:38:48;;;;;;;11.75;4.18;;;;;;;3.99;100.00;101202.38;5101127;28;20596;-79
2023/01/10 00:43:58;;;;;;;12.88;4.03;;;;;;;3.88;100.00;101221.88;5100180;28;20085;-79
2023/01/10 00:46:24;;;;;;;7.13;2.60;;;;;;;3.82;100.00;101223.25;5099150;28;20406;-79
2023/01/10 00:48:50;;;;;;;10.65;3.65;;;;;;;3.81;100.00;101229.50;5099407;28;20047;-79
2023/01/10 00:51:15;;;;;;;8.93;2.70;;;;;;;3.81;100.00;101226.88;5099461;28;20050;-79
2023/01/10 00:53:41;;;;;;;7.97;3.08;;;;;;;3.78;100.00;101232.44;5100977;28;20540;-79
2023/01/10 00:56:06;;;;;;;12.65;3.00;;;;;;;3.73;100.00;101226.75;5099496;28;20059;-79
2023/01/10 00:58:32;;;;;;;7.38;2.60;;;;;;;3.71;100.00;101224.25;5100028;28;20081;-79
2023/01/10 01:00:58;;;;;;;13.48;4.03;;;;;;;3.71;100.00;101232.16;5095970;28;20024;-79
2023/01/10 01:03:24;;;;;;;9.68;3.55;;;;;;;3.67;100.00;101235.25;5101561;28;20957;-79
2023/01/10 01:05:49;;;;;;;12.88;3.60;;;;;;;3.65;100.00;101229.28;5100941;28;20058;-79
2023/01/10 01:08:16;;;;;;;10.50;3.45;;;;;;;3.67;100.00;101235.25;5099248;28;20023;-79
2023/01/10 01:10:42;;;;;;;12.82;5.20;;;;;;;3.62;100.00;101240.13;5102959;28;20106;-79
2023/01/10 01:13:11;;;;;;;8.23;2.92;;;;;;;3.63;100.00;101247.88;5102841;28;20106;-79
2023/01/10 01:15:37;;;;;;;12.82;3.53;;;;;;;3.63;100.00;101249.69;5103310;28;20016;-79
2023/01/10 01:18:03;;;;;;;9.52;3.22;;;;;;;3.63;100.00;101257.59;5105967;28;20090;-79
2023/01/10 01:20:29;;;;;;;11.48;4.28;;;;;;;3.62;100.00;101266.50;5104375;28;20027;-79
2023/01/10 01:22:54;;;;;;;9.27;2.83;;;;;;;3.64;100.00;101269.81;5103985;28;20516;-79
2023/01/10 01:25:20;;;;;;;10.18;3.70;;;;;;;3.61;100.00;101263.00;5102680;28;20067;-79
2023/01/10 01:27:45;;;;;;;21.02;4.07;;;;;;;3.65;100.00;101269.69;5101402;28;20032;-79
2023/01/10 01:30:11;;;;;;;12.68;3.63;;;;;;;3.66;100.00;101283.69;5101417;28;20024;-79
2023/01/10 01:32:37;;;;;;;13.90;4.35;;;;;;;3.66;100.00;101284.50;5100547;28;20478;-79
2023/01/10 01:35:02;;;;;;;12.35;3.03;;;;;;;3.74;100.00;101289.91;5100748;28;20035;-79
2023/01/10 01:37:28;;;;;;;12.75;3.65;;;;;;;3.79;100.00;101288.66;5100170;28;20067;-79
2023/01/10 01:39:53;;;;;;;15.88;5.32;;;;;;;3.83;100.00;101290.91;5105073;28;20032;-79
2023/01/10 01:42:31;;;;;;;7.28;3.65;;;;;;;3.84;100.00;101289.09;5101405;28;20082;-79
2023/01/10 01:45:15;;;;;;;11.65;2.75;;;;;;;3.92;100.00;101290.03;5103951;28;20039;-79
2023/01/10 01:47:48;;;;;;;7.75;3.60;;;;;;;3.89;100.00;101281.56;5102523;28;20067;-78
2023/01/10 01:50:17;;;;;;;9.02;3.08;;;;;;;3.91;100.00;101298.94;5105867;28;20020;-79
2023/01/10 01:52:42;;;;;;;9.40;3.63;;;;;;;3.87;100.00;101296.72;5120282;27;20069;-79
2023/01/10 01:55:09;;;;;;;14.52;5.53;;;;;;;3.94;100.00;101316.28;5102610;28;20027;-79
2023/01/10 01:57:35;;;;;;;16.52;5.20;;;;;;;3.98;100.00;101324.75;5102803;28;20035;-78
2023/01/10 02:00:03;;;;;;;13.98;3.45;;;;;;;4.00;100.00;101320.16;5100025;28;20066;-79
2023/01/10 02:02:32;;;;;;;12.80;3.55;;;;;;;4.05;100.00;101313.47;5102554;28;20060;-78
2023/01/10 02:05:04;;;;;;;16.45;4.45;;;;;;;4.06;100.00;101320.44;5102255;28;20038;-78
2023/01/10 02:07:36;;;;;;;16.48;4.10;;;;;;;4.06;100.00;101323.06;5100552;28;20139;-78
2023/01/10 02:10:12;;;;;;;9.73;3.30;;;;;;;4.07;100.00;101327.38;5099629;28;20024;-78
2023/01/10 02:12:38;;;;;;;12.02;4.20;;;;;;;3.90;100.00;101305.19;5106078;28;20032;-78
2023/01/10 02:15:05;;;;;;;13.82;4.45;;;;;;;4.00;100.00;101323.63;5103930;28;20031;-79
2023/01/10 02:17:30;;;;;;;16.83;5.95;;;;;;;3.95;100.00;101325.84;5106330;28;20052;-78
2023/01/10 02:20:09;;;;;;;12.35;5.18;;;;;;;3.90;100.00;101318.38;5101362;28;20450;-78
2023/01/10 02:22:37;;;;;;;17.00;5.18;;;;;;;3.95;100.00;101331.97;5101994;28;20085;-78
2023/01/10 02:25:22;;;;;;;21.05;8.27;;;;;;;3.97;100.00;101326.56;5105180;28;20386;-78
2023/01/10 02:28:13;;;;;;;16.65;5.88;;;;;;;3.99;100.00;101324.63;5101137;28;20035;-78
2023/01/10 02:30:47;;;;;;;13.82;5.47;;;;;;;4.05;100.00;101326.66;5099715;28;20042;-78
2023/01/10 02:33:34;;;;;;;19.95;5.82;;;;;;;4.08;100.00;101329.03;5099402;28;20488;-78
2023/01/10 02:36:30;;;;;;;13.70;4.68;;;;;;;4.09;100.00;101333.34;5102690;28;20441;-78
2023/01/10 02:39:15;;;;;;;13.07;5.65;;;;;;;4.13;100.00;101334.72;5105966;28;20082;-78
2023/01/10 02:42:03;;;;;;;19.75;5.35;;;;;;;4.17;100.00;101338.75;5099987;28;20936;-78
2023/01/10 02:44:43;;;;;;;14.05;5.05;;;;;;;4.23;100.00;101337.34;5095950;28;20032;-78
2023/01/10 02:47:12;;;;;;;17.77;5.35;;;;;;;4.27;100.00;101337.88;5102428;28;20055;-78
2023/01/10 02:49:48;;;;;;;16.30;4.55;;;;;;;4.26;100.00;101323.84;5095791;28;20056;-78
2023/01/10 02:52:22;;;;;;;15.88;4.88;;;;;;;4.25;100.00;101321.34;5106832;28;20551;-78
2023/01/10 02:54:54;;;;;;;15.23;6.10;;;;;;;4.26;100.00;101321.19;5095747;28;20483;-78
2023/01/10 02:57:51;;;;;;;12.52;5.55;;;;;;;4.31;100.00;101337.44;5102942;28;20359;-78
2023/01/10 03:00:35;;;;;;;17.08;5.75;;;;;;;4.31;100.00;101340.09;5098212;28;20026;-78
2023/01/10 03:03:32;;;;;;;11.77;4.28;;;;;;;4.28;100.00;101344.81;5075467;28;20024;-78
2023/01/10 03:06:00;;;;;;;13.55;3.83;;;;;;;4.23;100.00;101345.25;5102972;28;20376;-77
2023/01/10 03:08:34;;;;;;;8.80;3.47;;;;;;;4.18;100.00;101355.41;5091200;28;20028;-76
2023/01/10 03:11:10;;;;;;;11.80;4.75;;;;;;;4.09;100.00;101357.09;5106298;27;20051;-76
2023/01/10 03:13:38;;;;;;;11.27;3.67;;;;;;;4.08;100.00;101357.22;5091092;28;20020;-76
2023/01/10 03:16:09;;;;;;;8.38;3.38;;;;;;;4.04;100.00;101358.50;5100781;28;20070;-76
2023/01/10 03:18:48;;;;;;;16.70;4.43;;;;;;;3.99;100.00;101364.19;5110474;27;20031;-76
2023/01/10 03:21:16;;;;;;;14.30;4.00;;;;;;;3.91;100.00;101364.06;5110431;28;20106;-76
2023/01/10 03:23:44;;;;;;;13.80;5.95;;;;;;;3.86;100.00;101377.69;5110160;28;20119;-76
2023/01/10 03:26:12;;;;;;;7.97;3.03;;;;;;;3.83;100.00;101385.88;5110248;28;20389;-76
2023/01/10 03:28:45;;;;;;;14.00;3.85;;;;;;;3.81;100.00;101393.09;5110232;28;20515;-76
2023/01/10 03:31:25;;;;;;;8.00;3.75;;;;;;;3.78;100.00;101401.28;5104802;28;20474;-76
2023/01/10 03:33:51;;;;;;;13.85;4.53;;;;;;;3.78;100.00;101400.47;5090686;28;20077;-76
2023/01/10 03:36:58;;;;;;;11.25;3.42;;;;;;;3.76;100.00;101400.59;5090834;28;20364;-76
2023/01/10 03:39:26;;;;;;;11.68;3.72;;;;;;;3.87;100.00;101405.72;5027597;28;20029;-76
2023/01/10 03:42:04;;;;;;;14.15;3.83;;;;;;;3.91;100.00;101403.66;5087257;28;20063;-76
2023/01/10 03:44:57;;;;;;;14.95;3.47;;;;;;;4.01;100.00;101412.41;5109915;28;20138;-76
2023/01/10 03:47:31;;;;;;;10.27;2.72;;;;;;;4.03;100.00;101412.25;5110137;28;20513;-76
2023/01/10 03:50:03;;;;;;;16.63;4.43;;;;;;;4.04;100.00;101427.13;5108747;28;20023;-76
2023/01/10 03:52:29;;;;;;;20.10;3.42;;;;;;;4.08;100.00;101433.78;5108428;28;20020;-76
2023/01/10 03:54:57;;;;;;;23.45;5.32;;;;;;;4.09;100.00;101422.25;5108381;28;20081;-76
2023/01/10 03:57:24;;;;;;;14.52;4.28;;;;;;;4.08;100.00;101434.59;5109964;28;20020;-76
2023/01/10 03:59:56;;;;;;;12.35;2.92;;;;;;;4.08;100.00;101433.78;5101790;27;20482;-76
2023/01/10 04:02:26;;;;;;;11.93;4.25;;;;;;;4.03;100.00;101433.34;5090419;28;20028;-76
2023/01/10 04:04:51;;;;;;;10.77;2.92;;;;;;;3.98;100.00;101436.41;5090223;28;20024;-76
2023/01/10 04:07:17;;;;;;;10.95;3.53;;;;;;;3.99;100.00;101446.00;5090210;28;20051;-76
2023/01/10 04:09:42;;;;;;;13.50;4.35;;;;;;;3.95;100.00;101441.97;5090335;28;20035;-76
2023/01/10 04:12:08;;;;;;;27.48;7.25;;;;;;;3.91;100.00;101454.63;5090192;28;20066;-76
2023/01/10 04:14:33;;;;;;;5.75;2.13;;;;;;;3.90;100.00;101450.31;5088980;28;20083;-76
2023/01/10 04:16:58;;;;;;;9.13;2.70;;;;;;;3.87;100.00;101447.09;5090165;28;20944;-76
2023/01/10 04:19:24;;;;;;;14.85;4.38;;;;;;;3.89;100.00;101453.09;5088529;28;20040;-76
2023/01/10 04:21:50;;;;;;;22.58;3.78;;;;;;;3.82;100.00;101444.88;5088865;28;20085;-76
2023/01/10 04:24:15;;;;;;;7.13;3.67;;;;;;;3.81;100.00;101458.22;5090065;28;20134;-76
2023/01/10 04:26:41;;;;;;;14.70;3.88;;;;;;;3.78;100.00;101454.06;5090016;28;20032;-76
2023/01/10 04:29:06;;;;;;;9.73;3.50;;;;;;;3.75;100.00;101456.97;5096197;28;20503;-76
2023/01/10 04:31:31;;;;;;;11.88;4.07;;;;;;;3.72;100.00;101467.78;5109502;28;20035;-76
2023/01/10 04:33:57;;;;;;;14.35;4.45;;;;;;;3.68;100.00;101461.13;5109411;28;20067;-76
2023/01/10 04:36:22;;;;;;;11.50;3.10;;;;;;;3.64;100.00;101464.97;5108145;28;20042;-76
2023/01/10 04:38:47;;;;;;;11.82;3.35;;;;;;;3.64;100.00;101471.13;5108275;28;20175;-76
2023/01/10 04:41:13;;;;;;;11.93;3.28;;;;;;;3.62;100.00;101472.22;5108001;28;20035;-76
2023/01/10 04:43:38;;;;;;;10.35;2.67;;;;;;;3.54;100.00;101448.31;5109249;28;20047;-76
2023/01/10 04:46:04;;;;;;;16.33;3.80;;;;;;;3.59;100.00;101461.91;5093616;28;20066;-76
2023/01/10 04:48:29;;;;;;;14.82;2.55;;;;;;;3.58;100.00;101468.16;5111757;28;20150;-76
2023/01/10 04:50:54;;;;;;;20.02;3.75;;;;;;;3.56;100.00;101468.28;5111964;28;20028;-76
2023/01/10 04:53:20;;;;;;;11.93;2.70;;;;;;;3.55;100.00;101468.44;5113212;28;20048;-76
2023/01/10 04:55:46;;;;;;;15.55;3.55;;;;;;;3.53;100.00;101467.75;5107768;28;20383;-76
2023/01/10 04:58:12;;;;;;;12.07;2.65;;;;;;;3.46;100.00;101459.56;5093833;28;20032;-76
2023/01/10 05:00:38;;;;;;;14.10;3.55;;;;;;;3.48;100.00;101476.91;5104953;28;20031;-76
2023/01/10 05:03:03;;;;;;;12.52;2.65;;;;;;;3.45;100.00;101478.97;5113386;28;20028;-76
2023/01/10 05:05:30;;;;;;;11.35;3.05;;;;;;;3.49;100.00;101488.28;5105926;28;20054;-76
2023/01/10 05:07:55;;;;;;;14.73;3.30;;;;;;;3.44;100.00;101475.50;5093610;28;20032;-76
2023/01/10 05:10:21;;;;;;;13.43;3.60;;;;;;;3.48;100.00;101484.81;5093405;28;20360;-76
2023/01/10 05:12:46;;;;;;;12.38;3.00;;;;;;;3.44;100.00;101462.31;5092132;28;20047;-76
2023/01/10 05:15:12;;;;;;;14.43;3.15;;;;;;;3.48;100.00;101476.91;5093585;28;20027;-76
2023/01/10 05:17:38;;;;;;;12.43;3.13;;;;;;;3.41;100.00;101474.94;5111454;28;20020;-76
2023/01/10 05:20:04;;;;;;;19.67;3.60;;;;;;;3.45;100.00;101484.25;5111418;28;20038;-76
2023/01/10 05:22:29;;;;;;;11.60;3.25;;;;;;;3.41;100.00;101488.97;5112688;28;20115;-76
2023/01/10 05:24:55;;;;;;;10.77;3.38;;;;;;;3.37;100.00;101495.44;5094190;28;20106;-76
2023/01/10 05:27:20;;;;;;;10.82;3.38;;;;;;;3.39;100.00;101503.25;5111384;28;20040;-76
2023/01/10 05:29:46;;;;;;;11.80;3.55;;;;;;;3.39;100.00;101519.88;5112660;28;20066;-76
2023/01/10 05:32:11;;;;;;;19.95;4.45;;;;;;;3.38;100.00;101520.88;5112632;28;20077;-76
2023/01/10 05:34:36;;;;;;;8.52;2.60;;;;;;;3.43;100.00;101523.09;5112518;27;20038;-76
2023/01/10 05:37:02;;;;;;;10.25;2.42;;;;;;;3.41;100.00;101511.88;5112554;28;20031;-76
2023/01/10 05:39:27;;;;;;;14.85;4.85;;;;;;;3.48;100.00;101520.88;5112722;28;20048;-76
2023/01/10 05:41:52;;;;;;;14.45;3.00;;;;;;;3.48;100.00;101532.28;5093251;28;20059;-76
2023/01/10 05:44:18;;;;;;;21.65;4.10;;;;;;;3.50;100.00;101540.88;5108683;28;20084;-76
2023/01/10 05:46:43;;;;;;;11.05;2.75;;;;;;;3.49;100.00;101539.22;5111882;28;20123;-76
2023/01/10 05:49:09;;;;;;;10.27;3.38;;;;;;;3.54;100.00;101543.25;5110884;28;20078;-76
2023/01/10 05:51:34;;;;;;;14.85;4.93;;;;;;;3.61;100.00;101542.56;5108123;28;20043;-76
2023/01/10 05:53:59;;;;;;;21.25;3.97;;;;;;;3.67;100.00;101546.50;5102733;28;20501;-76
2023/01/10 05:56:25;;;;;;;11.80;2.55;;;;;;;3.74;100.00;101555.53;5111009;28;20439;-76
2023/01/10 05:58:51;;;;;;;15.98;4.07;;;;;;;3.75;100.00;101551.94;5110898;28;20061;-76
2023/01/10 06:01:16;;;;;;;14.18;4.72;;;;;;;3.75;100.00;101546.66;5112100;28;20034;-76
2023/01/10 06:03:42;;;;;;;10.27;3.17;;;;;;;3.83;100.00;101567.09;5110911;28;20099;-76
2023/01/10 06:06:07;;;;;;;12.05;3.80;;;;;;;3.81;100.00;101548.75;5092328;28;20119;-76
2023/01/10 06:08:33;;;;;;;13.07;3.40;;;;;;;3.88;100.00;101560.44;5091189;28;20055;-76
2023/01/10 06:10:58;;;;;;;14.38;3.28;;;;;;;3.88;100.00;101562.25;5092365;28;20649;-76
2023/01/10 06:13:23;;;;;;;15.43;3.70;;;;;;;3.89;100.00;101559.47;5092294;28;20561;-75
2023/01/10 06:15:49;;;;;;;17.27;3.45;;;;;;;3.93;100.00;101560.88;5092386;28;20086;-76
2023/01/10 06:18:15;;;;;;;19.33;4.47;;;;;;;3.97;100.00;101550.88;5092164;28;20028;-76
2023/01/10 06:20:42;;;;;;;11.40;3.88;;;;;;;3.99;100.00;101556.84;5092200;28;20111;-76
2023/01/10 06:23:08;;;;;;;12.68;2.97;;;;;;;3.98;100.00;101565.72;5109811;28;20024;-76
2023/01/10 06:25:36;;;;;;;10.23;2.95;;;;;;;3.95;100.00;101573.91;5111455;28;20965;-76
2023/01/10 06:28:03;;;;;;;11.68;3.53;;;;;;;4.02;100.00;101572.41;5111583;28;20031;-76
2023/01/10 06:30:28;;;;;;;13.18;4.90;;;;;;;4.03;100.00;101571.44;5110459;28;20080;-76
2023/01/10 06:32:58;;;;;;;22.83;4.25;;;;;;;4.03;100.00;101573.25;5092453;28;20036;-76
2023/01/10 06:35:24;;;;;;;16.90;4.07;;;;;;;4.05;100.00;101569.50;5110380;28;20041;-76
2023/01/10 06:37:49;;;;;;;9.07;2.55;;;;;;;4.04;100.00;101569.66;5111371;28;20039;-76
2023/01/10 06:40:15;;;;;;;18.45;4.28;;;;;;;4.03;100.00;101574.06;5111274;28;20020;-76
2023/01/10 06:42:40;;;;;;;25.58;3.60;;;;;;;4.09;100.00;101580.63;5111229;28;20118;-76
2023/01/10 06:45:06;;;;;;;18.15;3.08;;;;;;;4.10;100.00;101587.56;5105451;28;20080;-76
2023/01/10 06:47:31;;;;;;;19.45;3.63;;;;;;;4.14;100.00;101588.97;5090268;28;20040;-76
2023/01/10 06:49:56;;;;;;;14.68;3.95;;;;;;;4.11;100.00;101591.88;5090265;28;20544;-76
2023/01/10 06:52:22;;;;;;;10.43;2.80;;;;;;;4.09;100.00;101597.28;5090290;28;20119;-76
2023/01/10 06:54:48;;;;;;;16.55;3.80;;;;;;;4.08;100.00;101607.97;5091602;28;20070;-76
2023/01/10 06:57:13;;;;;;;15.45;2.78;;;;;;;4.07;100.00;101607.16;5091590;28;20070;-76
2023/01/10 06:59:38;;;;;;;19.50;4.40;;;;;;;4.00;100.00;101598.09;5091653;28;20435;-76
2023/01/10 07:02:04;;;;;;;12.15;3.55;;;;;;;3.98;100.00;101601.84;5091422;28;20963;-76
2023/01/10 07:04:29;;;;;;;14.18;4.00;;;;;;;3.93;100.00;101618.09;5090022;28;20047;-76
2023/01/10 07:06:54;;;;;;;10.63;2.78;;;;;;;3.87;100.00;101623.91;5091210;28;20024;-76
2023/01/10 07:09:20;;;;;;;11.00;2.17;;;;;;;3.82;100.00;101626.94;5092781;28;20123;-76
2023/01/10 07:11:45;;;;;;;13.00;4.30;;;;;;;3.75;100.00;101636.38;5105373;28;20549;-76
2023/01/10 07:14:10;;;;;;;9.55;2.58;;;;;;;3.72;100.00;101649.78;5105198;28;20050;-76
2023/01/10 07:16:36;;;;;;;14.57;3.17;;;;;;;3.70;100.00;101647.31;5109252;28;20474;-76
2023/01/10 07:19:01;;;;;;;20.42;3.67;;;;;;;3.62;100.00;101630.47;5110823;28;20470;-76
2023/01/10 07:21:27;;;;;;;14.90;4.45;;;;;;;3.53;100.00;101636.53;5110165;28;20146;-76
2023/01/10 07:23:52;;;;;;;13.68;3.45;;;;;;;3.60;100.00;101656.16;5103751;28;20383;-76
2023/01/10 07:26:18;;;;;;;24.20;5.75;;;;;;;3.54;100.00;101652.22;5110367;28;20046;-76
2023/01/10 07:28:47;;;;;;;21.02;5.05;;;;;;;3.55;100.00;101671.53;5109686;28;20038;-76
2023/01/10 07:31:12;;;;;;;22.05;3.42;;;;;;;3.51;100.00;101669.16;5110276;28;20080;-76
2023/01/10 07:33:38;;;;;;;18.85;4.38;;;;;;;3.54;100.00;101675.97;5109034;28;20031;-75
2023/01/10 07:36:03;;;;;;;22.65;3.70;;;;;;;3.61;100.00;101678.91;5098753;28;20539;-76
2023/01/10 07:38:29;;;;;;;22.60;3.53;;;;;;;3.60;100.00;101678.06;5110185;28;20032;-76
2023/01/10 07:40:54;;;;;;;12.75;3.60;;;;;;;3.57;100.00;101680.16;5110008;28;20461;-75
2023/01/10 07:43:20;;;;;;;17.23;5.20;;;;;;;3.66;100.00;101696.00;5109906;28;20030;-75
2023/01/10 07:45:46;;;;;;;12.30;2.45;;;;;;;3.72;100.00;101705.19;5108471;28;20040;-75
2023/01/10 07:48:12;;;;;;;18.10;3.35;;;;;;;3.72;100.00;101702.56;5109681;28;20105;-76
2023/01/10 07:50:38;;;;;;;14.65;3.47;;;;;;;3.73;100.00;101706.88;5110050;28;20096;-76
2023/01/10 07:53:05;;;;;;;15.95;4.50;;;;;;;3.78;100.00;101704.69;5089974;28;20033;-76
2023/01/10 07:55:33;;;;;;;13.07;4.28;;;;;;;3.83;100.00;101704.31;5089314;28;20055;-76
2023/01/10 07:57:59;;;;;;;14.75;2.70;;;;;;;3.89;100.00;101703.75;5095198;28;20038;-75
2023/01/10 08:00:25;;;;;;;15.55;3.35;;;;;;;3.90;100.00;101703.66;5108351;28;20024;-76
2023/01/10 08:02:54;;;;;;;11.50;3.70;;;;;;;3.98;100.00;101707.41;5096696;28;20032;-75
2023/01/10 08:05:20;;;;;;;18.70;4.55;;;;;;;4.02;100.00;101707.03;5090258;28;20458;-76
2023/01/10 08:07:45;;;;;;;13.10;3.28;;;;;;;4.04;100.00;101709.53;5090267;28;20032;-76
2023/01/10 08:10:11;;;;;;;19.70;4.88;;;;;;;4.02;100.00;101703.56;5099180;28;20393;-76
2023/01/10 08:12:36;;;;;;;9.60;4.35;;;;;;;4.07;100.00;101719.81;5108121;28;20138;-76
2023/01/10 08:15:02;;;;;;;14.90;2.55;;;;;;;4.10;100.00;101711.63;5107695;28;20034;-75
2023/01/10 08:17:27;;;;;;;11.07;4.43;;;;;;;4.12;100.00;101715.81;5107969;28;20126;-75
2023/01/10 08:19:53;;;;;;;10.38;3.22;;;;;;;4.18;100.00;101722.38;5108698;28;20020;-75
2023/01/10 08:22:18;;;;;;;19.13;3.38;;;;;;;4.23;100.00;101714.06;5109447;28;20071;-76
2023/01/10 08:24:43;;;;;;;25.52;4.75;;;;;;;4.28;100.00;101720.59;5109352;28;20035;-76
2023/01/10 08:27:09;;;;;;;10.93;3.78;;;;;;;4.31;100.00;101709.75;5109564;28;20028;-76
2023/01/10 08:29:34;;;;;;;13.15;4.55;;;;;;;4.35;100.00;101716.47;5089722;28;20092;-76
2023/01/10 08:32:00;;;;;;;16.52;3.65;;;;;;;4.36;100.00;101715.47;5090057;28;20035;-75
2023/01/10 08:34:25;;;;;;;10.38;2.42;;;;;;;4.44;100.00;101716.63;5089927;28;20044;-76
2023/01/10 08:36:52;;;;;;;23.20;2.80;;;;;;;4.53;100.00;101721.94;5091958;28;20027;-76
2023/01/10 08:39:21;;;;;;;26.20;4.75;;;;;;;4.57;100.00;101728.59;5089961;28;20020;-75
2023/01/10 08:41:47;;;;;;;27.23;5.70;;;;;;;4.56;100.00;101726.94;5098928;28;20028;-76
2023/01/10 08:44:14;;;;;;;16.40;4.78;;;;;;;4.54;100.00;101722.75;5109353;28;20470;-76
2023/01/10 08:46:40;;;;;;;14.45;3.33;;;;;;;4.55;100.00;101713.84;5109162;28;20428;-76
2023/01/10 08:49:05;;;;;;;13.70;2.90;;;;;;;4.55;100.00;101712.03;5109063;28;20169;-76
2023/01/10 08:51:31;;;;;;;13.98;3.10;;;;;;;4.54;100.00;101709.56;5109051;28;20040;-76
2023/01/10 08:53:56;;;;;;;14.82;3.60;;;;;;;4.58;100.00;101721.50;5095954;28;20127;-76
2023/01/10 08:56:21;;;;;;;11.00;3.38;;;;;;;4.57;100.00;101718.03;5088396;28;20016;-76
2023/01/10 08:58:47;;;;;;;14.38;3.13;;;;;;;4.53;100.00;101705.22;5089813;28;20024;-76
2023/01/10 09:01:13;;;;;;;13.38;3.63;;;;;;;4.56;100.00;101715.53;5097617;28;20038;-76
2023/01/10 09:03:39;;;;;;;17.20;3.85;;;;;;;4.57;100.00;101711.91;5109444;28;20114;-76
2023/01/10 09:06:05;;;;;;;8.40;2.80;;;;;;;4.58;100.00;101709.16;5108948;28;20134;-76
2023/01/10 09:08:31;;;;;;;15.45;3.15;;;;;;;4.62;100.00;101707.06;5099093;28;20073;-76
2023/01/10 09:11:00;;;;;;;18.63;5.28;;;;;;;4.63;100.00;101698.16;5093414;28;20363;-76
2023/01/10 09:13:27;;;;;;;14.25;3.40;;;;;;;4.67;100.00;101701.38;5092770;28;20020;-76
2023/01/10 09:15:52;;;;;;;15.20;3.60;;;;;;;4.71;100.00;101708.88;5094063;28;20031;-77
2023/01/10 09:18:18;;;;;;;19.83;3.50;;;;;;;4.66;100.00;101694.41;5093970;28;20080;-75
2023/01/10 09:20:44;;;;;;;12.05;2.92;;;;;;;4.73;100.00;101695.53;5092308;28;20157;-75
2023/01/10 09:23:16;;;;;;;19.33;6.03;;;;;;;4.76;100.00;101692.59;5093462;28;20032;-77
2023/01/10 09:25:42;;;;;;;13.48;4.50;;;;;;;4.80;100.00;101691.38;5093589;28;20099;-78
2023/01/10 09:28:08;;;;;;;11.82;2.83;;;;;;;4.87;100.00;101689.00;5094063;28;20084;-78
2023/01/10 09:30:34;;;;;;;10.50;2.33;;;;;;;4.88;100.00;101693.31;5093721;28;20073;-78
2023/01/10 09:33:00;;;;;;;12.82;2.80;;;;;;;4.91;100.00;101698.31;5096287;28;20655;-78
2023/01/10 09:35:27;;;;;;;14.90;4.45;;;;;;;4.91;100.00;101693.03;5095498;28;20031;-78
2023/01/10 09:37:59;;;;;;;17.35;3.65;;;;;;;4.90;100.00;101700.13;5096545;28;20752;-75
2023/01/10 09:41:02;;;;;;;12.48;3.33;;;;;;;4.91;100.00;101704.44;5096519;28;20035;-77
2023/01/10 09:43:55;;;;;;;14.25;4.55;;;;;;;4.91;100.00;101704.44;5111464;28;20453;-76
2023/01/10 09:46:49;;;;;;;13.88;2.78;;;;;;;4.93;100.00;101704.31;5092370;28;20103;-76
2023/01/10 09:49:23;;;;;;;8.77;2.45;;;;;;;4.93;100.00;101702.50;5103546;28;20104;-76
2023/01/10 09:51:50;;;;;;;13.00;3.30;;;;;;;4.91;100.00;101695.69;5112218;28;20543;-76
2023/01/10 09:54:22;;;;;;;11.63;3.05;;;;;;;4.95;100.00;101700.56;5112344;28;20027;-76
2023/01/10 09:56:48;;;;;;;15.80;3.65;;;;;;;4.96;100.00;101691.66;5104562;28;20031;-76
2023/01/10 09:59:20;;;;;;;11.63;3.35;;;;;;;5.01;100.00;101699.16;5110849;28;20035;-76
2023/01/10 10:01:47;;;;;;;34.45;5.95;;;;;;;5.00;100.00;101695.69;5095978;28;20024;-76
2023/01/10 10:04:34;;;;;;;18.33;5.00;;;;;;;5.09;100.00;101701.13;5106281;28;20050;-76
2023/01/10 10:07:01;;;;;;;17.33;3.70;;;;;;;5.11;100.00;101699.13;5107466;28;20119;-76
2023/01/10 10:09:34;;;;;;;12.35;2.85;;;;;;;5.16;100.00;101702.22;5108615;28;20024;-76
2023/01/10 10:12:08;;;;;;;15.38;3.92;;;;;;;5.21;100.00;101708.78;5112092;28;20110;-76
2023/01/10 10:14:33;;;;;;;10.68;4.28;;;;;;;5.26;100.00;101714.44;5095304;28;20073;-76
2023/01/10 10:17:11;;;;;;;14.30;2.80;;;;;;;5.30;100.00;101709.72;5107549;28;20032;-76
2023/01/10 10:20:05;;;;;;;17.15;2.85;;;;;;;5.34;100.00;101697.88;5111696;28;20027;-76
2023/01/10 10:23:00;;;;;;;14.88;3.05;;;;;;;5.40;100.00;101693.84;5096510;28;20402;-76
2023/01/10 10:25:59;;;;;;;11.73;2.53;;;;;;;5.46;100.00;101680.88;5093770;28;20028;-76
2023/01/10 10:28:49;;;;;;;11.13;3.83;;;;;;;5.51;100.00;101676.97;5110044;28;20027;-76
2023/01/10 10:31:38;;;;;;;22.63;4.10;;;;;;;5.55;100.00;101678.34;5111430;28;20031;-76
2023/01/10 10:34:35;;;;;;;10.80;3.85;;;;;;;5.56;100.00;101675.56;5103586;28;20030;-76
2023/01/10 10:37:45;;;;;;;15.13;2.95;;;;;;;5.64;100.00;101661.63;5095462;28;20410;-76
2023/01/10 10:40:13;;;;;;;14.68;3.20;;;;;;;5.62;100.00;101667.03;5028182;28;20033;-76
2023/01/10 10:42:43;;;;;;;13.20;3.15;;;;;;;5.61;100.00;101657.44;5027515;28;20481;-76
2023/01/10 10:45:17;;;;;;;12.50;2.47;;;;;;;5.66;100.00;101649.91;5064155;28;20043;-76
2023/01/10 10:47:49;;;;;;;18.08;3.20;;;;;;;5.76;100.00;101655.16;5091681;28;20052;-76
2023/01/10 10:50:23;;;;;;;14.52;3.15;;;;;;;5.79;100.00;101641.66;5098198;28;20024;-77
2023/01/10 10:52:48;;;;;;;13.80;3.10;;;;;;;5.76;100.00;101644.56;5110372;28;20027;-76
2023/01/10 10:55:26;;;;;;;17.55;2.83;;;;;;;5.79;100.00;101636.34;5106791;28;20477;-76
2023/01/10 10:57:52;;;;;;;12.25;2.55;;;;;;;5.86;100.00;101640.06;5107326;28;20031;-76
2023/01/10 11:00:19;;;;;;;9.65;2.60;;;;;;;5.88;100.00;101642.56;5109603;28;20031;-76
2023/01/10 11:02:50;;;;;;;17.15;3.72;;;;;;;5.84;100.00;101634.09;5110866;28;20055;-76
2023/01/10 11:05:22;;;;;;;19.07;4.03;;;;;;;5.90;100.00;101625.56;5110857;28;20592;-76
2023/01/10 11:07:48;;;;;;;16.98;4.40;;;;;;;5.90;100.00;101616.78;5109862;28;20080;-76
2023/01/10 11:12:49;;;;;;;7.05;2.55;;;;;;;6.06;100.00;101621.47;5110826;28;20375;-77
2023/01/10 11:15:41;;;;;;;15.93;3.88;;;;;;;6.12;100.00;101626.19;5105069;28;20359;-77
2023/01/10 11:18:12;;;;;;;12.88;5.57;;;;;;;6.13;100.00;101622.53;5110711;28;20381;-76
2023/01/10 11:20:47;;;;;;;19.85;4.32;;;;;;;6.13;100.00;101614.59;5099480;28;20039;-77
2023/01/10 11:23:22;;;;;;;18.88;4.70;;;;;;;6.07;100.00;101602.78;5101469;28;20031;-77
2023/01/10 11:25:49;;;;;;;17.77;4.18;;;;;;;6.07;100.00;101602.78;5093712;28;20028;-76
2023/01/10 11:28:17;;;;;;;9.60;2.50;;;;;;;6.11;100.00;101609.47;5109226;28;20027;-77
2023/01/10 11:30:47;;;;;;;20.75;5.45;;;;;;;6.12;100.00;101607.63;5094277;28;20031;-76
2023/01/10 11:33:22;;;;;;;15.40;5.13;;;;;;;6.15;100.00;101607.34;5090827;28;20035;-77
2023/01/10 11:36:07;;;;;;;14.75;3.63;;;;;;;6.15;100.00;101607.34;5090737;28;20028;-75
2023/01/10 11:38:33;;;;;;;14.75;4.57;;;;;;;6.12;100.00;101591.75;5090795;28;20470;-75